Time;durP1;ratioP1;P1;durP2;ratioP2;P2;SDS_P1;SDS_P2;PMS_P1;PMS_P2;Temp;Humidity;BMP_temperature;BMP_pressure;BME280_temperature;BME280_humidity;BME280_pressure;Samples;Min_cycle;Max_cycle;Signal;HPM_P1;HPM_P2
2021/09/07 00:01:38;;;;;;;8.93;7.15;;;17.40;85.20;;;;;;5060834;28;20516;-62
2021/09/07 00:04:03;;;;;;;10.90;8.05;;;17.40;85.40;;;;;;5065880;28;20126;-63
2021/09/07 00:06:29;;;;;;;10.02;7.35;;;17.40;85.50;;;;;;5064721;28;20021;-62
2021/09/07 00:08:54;;;;;;;12.70;8.55;;;17.40;85.70;;;;;;5041707;28;20165;-62
2021/09/07 00:11:21;;;;;;;11.07;8.32;;;17.40;85.80;;;;;;5057631;28;20016;-62
2021/09/07 00:13:46;;;;;;;11.98;8.38;;;17.40;85.90;;;;;;5042333;28;20019;-62
2021/09/07 00:16:12;;;;;;;10.55;7.80;;;17.40;86.20;;;;;;5040587;28;20028;-62
2021/09/07 00:18:38;;;;;;;10.00;7.35;;;17.40;86.30;;;;;;5067186;28;20036;-63
2021/09/07 00:21:03;;;;;;;11.80;8.75;;;17.40;86.60;;;;;;5056668;28;20492;-62
2021/09/07 00:23:29;;;;;;;11.52;7.80;;;17.40;86.70;;;;;;5064735;28;20021;-62
2021/09/07 00:25:54;;;;;;;11.63;8.95;;;17.40;86.80;;;;;;5056712;28;20515;-62
2021/09/07 00:28:20;;;;;;;14.73;9.00;;;17.40;86.90;;;;;;5061690;28;20021;-62
2021/09/07 00:30:45;;;;;;;12.15;8.93;;;17.50;87.10;;;;;;5066645;28;20179;-62
2021/09/07 00:33:11;;;;;;;12.65;9.45;;;17.40;87.10;;;;;;5060106;28;20021;-62
2021/09/07 00:35:37;;;;;;;11.55;8.93;;;17.50;87.30;;;;;;5068759;28;20096;-62
2021/09/07 00:38:03;;;;;;;11.13;9.25;;;17.50;87.50;;;;;;5065240;28;20035;-62
2021/09/07 00:40:29;;;;;;;11.80;9.18;;;17.50;88.30;;;;;;5067146;28;20045;-62
2021/09/07 00:42:55;;;;;;;12.07;9.18;;;17.50;87.80;;;;;;5050608;28;20017;-62
2021/09/07 00:45:20;;;;;;;12.52;9.13;;;17.50;88.00;;;;;;5065811;28;20103;-63
2021/09/07 00:47:46;;;;;;;10.65;8.40;;;17.50;88.20;;;;;;5048515;28;20017;-62
2021/09/07 00:50:13;;;;;;;11.05;8.88;;;17.40;88.30;;;;;;5064594;28;20017;-63
2021/09/07 00:52:40;;;;;;;10.55;8.23;;;17.40;88.60;;;;;;5062167;28;20017;-62
2021/09/07 00:55:07;;;;;;;12.75;9.18;;;17.40;88.90;;;;;;5049794;28;20052;-62
2021/09/07 00:57:34;;;;;;;11.10;8.25;;;17.40;89.10;;;;;;5064444;28;20029;-62
2021/09/07 01:00:03;;;;;;;9.15;7.57;;;17.30;89.20;;;;;;5065586;28;20500;-62
2021/09/07 01:02:28;;;;;;;8.98;7.45;;;17.40;89.50;;;;;;5069016;28;20040;-62
2021/09/07 01:04:54;;;;;;;10.43;7.70;;;17.40;89.60;;;;;;5049598;28;20384;-62
2021/09/07 01:07:19;;;;;;;11.60;8.00;;;17.40;89.70;;;;;;5063913;28;20021;-62
2021/09/07 01:09:45;;;;;;;11.13;7.47;;;17.40;89.90;;;;;;5060556;28;20025;-62
2021/09/07 01:12:11;;;;;;;10.43;7.85;;;17.40;90.00;;;;;;5047645;28;20010;-62
2021/09/07 01:14:39;;;;;;;9.52;7.45;;;17.40;90.10;;;;;;5062219;28;20024;-62
2021/09/07 01:17:24;;;;;;;11.25;7.95;;;17.40;90.20;;;;;;5047063;28;20073;-62
2021/09/07 01:19:50;;;;;;;10.15;7.45;;;17.50;90.10;;;;;;5061920;28;20029;-63
2021/09/07 01:22:18;;;;;;;12.25;8.05;;;17.40;90.20;;;;;;5065548;28;20457;-63
2021/09/07 01:24:45;;;;;;;10.98;8.52;;;17.40;90.30;;;;;;5063119;28;20472;-62
2021/09/07 01:27:10;;;;;;;13.25;9.20;;;17.40;90.30;;;;;;5062314;28;20111;-62
2021/09/07 01:29:39;;;;;;;10.48;8.50;;;17.40;90.40;;;;;;5071953;28;20539;-62
2021/09/07 01:32:06;;;;;;;12.00;8.23;;;17.30;90.50;;;;;;5069854;28;20021;-62
2021/09/07 01:34:32;;;;;;;12.00;9.02;;;17.30;90.60;;;;;;5062799;28;20028;-62
2021/09/07 01:36:58;;;;;;;12.45;8.57;;;17.30;90.60;;;;;;5065234;28;20546;-62
2021/09/07 01:39:24;;;;;;;12.55;9.30;;;17.20;90.70;;;;;;5071374;28;20605;-62
2021/09/07 01:41:51;;;;;;;15.57;9.55;;;17.30;90.80;;;;;;5070133;28;20058;-63
2021/09/07 01:44:18;;;;;;;12.45;8.93;;;17.20;90.90;;;;;;5065165;28;20029;-62
2021/09/07 01:46:43;;;;;;;12.13;9.20;;;17.20;91.00;;;;;;5063653;28;20029;-63
2021/09/07 01:49:11;;;;;;;12.70;8.73;;;17.10;91.00;;;;;;5057806;28;20519;-62
2021/09/07 01:51:41;;;;;;;11.75;8.20;;;17.10;91.10;;;;;;5063924;28;20017;-62
2021/09/07 01:54:08;;;;;;;13.85;10.02;;;17.10;91.10;;;;;;5061096;28;20104;-62
2021/09/07 01:56:34;;;;;;;11.73;8.68;;;17.10;91.20;;;;;;5064865;28;20009;-62
2021/09/07 01:59:00;;;;;;;12.60;9.27;;;17.10;91.20;;;;;;5042733;28;20104;-62
2021/09/07 02:01:26;;;;;;;11.93;9.45;;;17.00;91.20;;;;;;5061670;28;20468;-62
2021/09/07 02:03:51;;;;;;;12.90;9.05;;;17.00;91.30;;;;;;5058712;28;20025;-63
2021/09/07 02:06:17;;;;;;;12.75;9.43;;;17.00;91.40;;;;;;5066439;28;20039;-62
2021/09/07 02:08:43;;;;;;;13.25;10.23;;;16.90;91.40;;;;;;5061277;28;20017;-62
2021/09/07 02:11:08;;;;;;;13.65;10.35;;;16.90;91.40;;;;;;5061752;28;20554;-62
2021/09/07 02:13:34;;;;;;;14.20;10.25;;;16.90;91.50;;;;;;5044798;28;20048;-62
2021/09/07 02:15:59;;;;;;;12.45;9.00;;;16.90;91.50;;;;;;5061943;28;20138;-62
2021/09/07 02:18:25;;;;;;;13.93;9.40;;;16.80;91.50;;;;;;5062142;28;20025;-62
2021/09/07 02:20:50;;;;;;;13.93;10.13;;;16.80;91.60;;;;;;5042535;28;20527;-62
2021/09/07 02:23:16;;;;;;;11.88;8.77;;;16.80;91.70;;;;;;5045551;28;20372;-62
2021/09/07 02:25:42;;;;;;;13.23;9.88;;;16.70;91.60;;;;;;5060097;28;20016;-62
2021/09/07 02:28:07;;;;;;;12.02;9.23;;;16.80;91.70;;;;;;5059323;28;20544;-62
2021/09/07 02:30:33;;;;;;;10.52;8.43;;;16.70;91.70;;;;;;5052138;28;20023;-62
2021/09/07 02:32:59;;;;;;;11.32;8.45;;;16.70;91.70;;;;;;5060330;28;20025;-62
2021/09/07 02:35:30;;;;;;;11.38;8.38;;;16.60;91.70;;;;;;5045246;28;20039;-62
2021/09/07 02:37:56;;;;;;;8.57;7.03;;;16.60;91.80;;;;;;5039746;28;20028;-62
2021/09/07 02:40:22;;;;;;;7.60;5.95;;;16.60;91.90;;;;;;5061049;28;20119;-62
2021/09/07 02:42:48;;;;;;;7.93;4.72;;;16.60;91.90;;;;;;5061683;28;20099;-62
2021/09/07 02:45:13;;;;;;;5.43;4.35;;;16.50;91.90;;;;;;5064267;28;20036;-63
2021/09/07 02:47:40;;;;;;;4.68;3.30;;;16.50;92.10;;;;;;5062921;28;20384;-62
2021/09/07 02:50:12;;;;;;;5.68;4.18;;;16.40;92.20;;;;;;5040002;28;20013;-62
2021/09/07 02:52:38;;;;;;;4.70;3.47;;;16.40;92.30;;;;;;5061286;28;20538;-62
2021/09/07 02:55:05;;;;;;;5.28;4.20;;;16.40;92.40;;;;;;5043390;28;20028;-63
2021/09/07 02:57:30;;;;;;;5.88;4.72;;;16.50;92.40;;;;;;5059706;28;20072;-62
2021/09/07 02:59:56;;;;;;;6.35;5.07;;;16.50;92.40;;;;;;5064145;28;20503;-62
2021/09/07 03:02:23;;;;;;;8.68;5.97;;;16.50;92.40;;;;;;5059689;28;20029;-62
2021/09/07 03:04:49;;;;;;;9.18;6.63;;;16.50;92.60;;;;;;5026937;28;20463;-62
2021/09/07 03:07:15;;;;;;;9.45;7.00;;;16.50;92.40;;;;;;5045720;28;20016;-62
2021/09/07 03:09:41;;;;;;;10.20;7.68;;;16.50;92.40;;;;;;5061091;28;20020;-63
2021/09/07 03:12:07;;;;;;;11.52;8.63;;;16.60;92.50;;;;;;5064196;28;20487;-62
2021/09/07 03:14:32;;;;;;;10.30;8.50;;;16.60;92.50;;;;;;5058795;28;20032;-62
2021/09/07 03:16:58;;;;;;;12.30;8.48;;;16.50;92.60;;;;;;5070358;28;20028;-62
2021/09/07 03:19:23;;;;;;;13.73;9.27;;;16.60;92.70;;;;;;5063225;28;20033;-62
2021/09/07 03:22:14;;;;;;;12.43;8.65;;;16.60;92.70;;;;;;5064832;28;20068;-63
2021/09/07 03:24:40;;;;;;;11.57;8.90;;;16.60;92.80;;;;;;5004658;28;20056;-63
2021/09/07 03:27:06;;;;;;;13.02;8.93;;;16.60;92.90;;;;;;5059648;28;20485;-62
2021/09/07 03:29:31;;;;;;;13.88;9.73;;;16.60;92.90;;;;;;5064472;28;20017;-62
2021/09/07 03:31:57;;;;;;;10.75;8.70;;;16.60;92.90;;;;;;5063628;28;20074;-62
2021/09/07 03:34:22;;;;;;;12.55;9.38;;;16.60;93.00;;;;;;5061386;28;20033;-62
2021/09/07 03:36:48;;;;;;;11.35;8.98;;;16.60;93.00;;;;;;5067203;28;20029;-62
2021/09/07 03:39:14;;;;;;;12.82;8.90;;;16.70;93.10;;;;;;5061703;28;20203;-62
2021/09/07 03:41:40;;;;;;;11.57;8.50;;;16.60;93.20;;;;;;5060785;28;20041;-62
2021/09/07 03:44:05;;;;;;;10.93;9.02;;;16.60;93.20;;;;;;5063277;28;20029;-62
2021/09/07 03:46:31;;;;;;;13.43;8.65;;;16.70;93.30;;;;;;5063911;28;20103;-62
2021/09/07 03:48:56;;;;;;;11.82;9.02;;;16.60;93.30;;;;;;5049095;28;20361;-62
2021/09/07 03:51:22;;;;;;;12.25;8.48;;;16.60;93.40;;;;;;5059936;28;20039;-62
2021/09/07 03:53:47;;;;;;;12.48;8.65;;;16.70;93.50;;;;;;5040998;28;20025;-62
2021/09/07 03:56:14;;;;;;;12.70;8.95;;;16.70;93.50;;;;;;5059602;28;20388;-62
2021/09/07 03:58:40;;;;;;;13.18;9.68;;;16.70;93.50;;;;;;5060030;28;20056;-63
2021/09/07 04:01:05;;;;;;;13.02;9.10;;;16.70;93.60;;;;;;5061007;28;20503;-62
2021/09/07 04:03:31;;;;;;;11.30;8.73;;;16.70;93.70;;;;;;5059825;28;20056;-62
2021/09/07 04:05:56;;;;;;;13.20;9.88;;;16.70;93.70;;;;;;5043589;28;20048;-62
2021/09/07 04:08:22;;;;;;;15.82;10.00;;;16.70;93.80;;;;;;5066663;28;20145;-62
2021/09/07 04:10:47;;;;;;;14.73;10.52;;;16.70;93.80;;;;;;5067604;28;20028;-62
2021/09/07 04:13:12;;;;;;;14.27;10.18;;;16.70;93.90;;;;;;5043273;28;20027;-62
2021/09/07 04:15:51;;;;;;;15.48;9.45;;;16.70;94.00;;;;;;5060954;28;20033;-63
2021/09/07 04:18:17;;;;;;;14.63;9.10;;;16.70;94.00;;;;;;5064831;28;20021;-62
2021/09/07 04:20:43;;;;;;;14.82;9.32;;;16.60;94.00;;;;;;5068187;28;20270;-62
2021/09/07 04:23:08;;;;;;;11.60;8.85;;;16.60;94.10;;;;;;5057974;28;20021;-62
2021/09/07 04:25:36;;;;;;;12.90;9.57;;;16.60;94.10;;;;;;5050961;28;20104;-62
2021/09/07 04:28:02;;;;;;;12.27;9.18;;;16.60;94.20;;;;;;5072337;28;20071;-62
2021/09/07 04:30:27;;;;;;;11.93;9.55;;;16.60;94.20;;;;;;5067833;28;20112;-62
2021/09/07 04:32:53;;;;;;;12.98;9.48;;;16.50;94.20;;;;;;5039853;28;20021;-62
2021/09/07 04:35:18;;;;;;;14.95;10.38;;;16.50;94.30;;;;;;5045597;28;20376;-62
2021/09/07 04:37:45;;;;;;;17.80;11.02;;;16.50;94.30;;;;;;5063934;28;20095;-62
2021/09/07 04:40:22;;;;;;;14.07;9.90;;;16.50;94.40;;;;;;5064920;28;20067;-62
2021/09/07 04:42:48;;;;;;;15.18;9.93;;;16.50;94.40;;;;;;5066951;28;20544;-62
2021/09/07 04:45:13;;;;;;;14.27;10.80;;;16.50;94.40;;;;;;5060859;28;20029;-62
2021/09/07 04:47:39;;;;;;;13.57;9.80;;;16.50;94.50;;;;;;5065395;28;20024;-62
2021/09/07 04:50:05;;;;;;;13.95;10.00;;;16.50;94.50;;;;;;5061978;28;20075;-62
2021/09/07 04:52:31;;;;;;;12.52;9.32;;;16.40;94.50;;;;;;5059666;28;20021;-62
2021/09/07 04:54:57;;;;;;;15.77;10.50;;;16.40;94.50;;;;;;5061169;28;20132;-62
2021/09/07 04:57:22;;;;;;;13.02;9.93;;;16.40;94.60;;;;;;5065398;28;20433;-62
2021/09/07 04:59:53;;;;;;;12.05;9.68;;;16.40;94.60;;;;;;5069104;28;20369;-62
2021/09/07 05:02:18;;;;;;;12.63;9.30;;;16.40;94.60;;;;;;5042679;28;20036;-62
2021/09/07 05:04:44;;;;;;;13.07;9.48;;;16.30;94.60;;;;;;5067547;28;20060;-62
2021/09/07 05:07:10;;;;;;;12.85;9.73;;;16.30;94.70;;;;;;5054758;28;20101;-62
2021/09/07 05:09:55;;;;;;;13.70;9.70;;;16.30;94.70;;;;;;5054747;28;20029;-62
2021/09/07 05:12:23;;;;;;;13.77;9.90;;;16.30;94.70;;;;;;5054761;28;20412;-63
2021/09/07 05:14:49;;;;;;;13.75;10.05;;;16.30;94.70;;;;;;5055350;28;20028;-62
2021/09/07 05:17:14;;;;;;;14.15;9.88;;;16.30;94.70;;;;;;5055099;28;20029;-62
2021/09/07 05:19:40;;;;;;;13.68;9.98;;;16.20;94.70;;;;;;5054405;28;20495;-62
2021/09/07 05:22:13;;;;;;;14.35;10.70;;;16.20;94.80;;;;;;5054842;28;20151;-62
2021/09/07 05:24:38;;;;;;;13.25;10.15;;;16.30;94.90;;;;;;5040983;28;20029;-62
2021/09/07 05:27:04;;;;;;;13.50;9.90;;;16.20;94.90;;;;;;5054608;28;20013;-62
2021/09/07 05:29:30;;;;;;;15.35;10.52;;;16.20;94.90;;;;;;5054232;28;20021;-62
2021/09/07 05:31:55;;;;;;;12.98;9.95;;;16.20;94.90;;;;;;5036787;28;20021;-62
2021/09/07 05:34:21;;;;;;;13.80;9.40;;;16.20;94.90;;;;;;5036907;28;20021;-62
2021/09/07 05:36:46;;;;;;;14.27;9.80;;;16.20;95.00;;;;;;5037203;28;20031;-62
2021/09/07 05:39:12;;;;;;;14.40;10.00;;;16.20;95.00;;;;;;5068707;28;20016;-62
2021/09/07 05:41:37;;;;;;;14.65;11.32;;;16.20;95.00;;;;;;5054435;28;20501;-62
2021/09/07 05:44:03;;;;;;;15.63;10.85;;;16.20;95.00;;;;;;5054692;28;20021;-62
2021/09/07 05:46:29;;;;;;;14.25;10.75;;;16.30;95.10;;;;;;5054366;28;20496;-62
2021/09/07 05:48:54;;;;;;;16.23;12.30;;;16.30;95.10;;;;;;5054617;28;20022;-62
2021/09/07 05:51:34;;;;;;;14.65;10.38;;;16.30;95.10;;;;;;5054309;28;20524;-62
2021/09/07 05:54:00;;;;;;;14.32;10.90;;;16.40;95.20;;;;;;5054520;28;20017;-62
2021/09/07 05:56:26;;;;;;;13.18;9.85;;;16.40;95.20;;;;;;5036468;28;20492;-62
2021/09/07 05:58:56;;;;;;;12.00;9.25;;;16.40;95.20;;;;;;5054200;28;20033;-62
2021/09/07 06:01:21;;;;;;;10.77;8.02;;;16.40;95.20;;;;;;5054254;28;20399;-62
2021/09/07 06:03:47;;;;;;;10.32;7.60;;;16.40;95.30;;;;;;5054247;28;20512;-62
2021/09/07 06:06:13;;;;;;;11.20;7.78;;;16.40;95.60;;;;;;5036269;28;20048;-62
2021/09/07 06:08:38;;;;;;;10.18;7.22;;;16.40;95.30;;;;;;5054010;28;20108;-62
2021/09/07 06:11:50;;;;;;;;;;;;;;;;;;;;;
2021/09/07 06:14:16;;;;;;;8.65;6.50;;;16.40;95.30;;;;;;5054088;28;20033;-62
2021/09/07 06:16:42;;;;;;;10.43;7.82;;;16.40;95.50;;;;;;5054047;28;20113;-62
2021/09/07 06:19:07;;;;;;;11.30;8.05;;;16.40;95.50;;;;;;5035973;28;20104;-62
2021/09/07 06:21:33;;;;;;;13.30;9.57;;;16.40;95.50;;;;;;5054041;28;20051;-62
2021/09/07 06:23:58;;;;;;;15.40;10.68;;;16.50;95.50;;;;;;5054008;28;20424;-62
2021/09/07 06:26:24;;;;;;;13.73;10.30;;;16.50;95.50;;;;;;5053732;28;20032;-62
2021/09/07 06:28:49;;;;;;;14.27;10.77;;;16.50;95.50;;;;;;5068091;28;20028;-63
2021/09/07 06:31:15;;;;;;;14.73;11.73;;;16.60;95.50;;;;;;5068972;28;20033;-63
2021/09/07 06:33:40;;;;;;;15.60;11.50;;;16.60;95.50;;;;;;5044168;28;20018;-62
2021/09/07 06:36:06;;;;;;;17.05;11.82;;;16.70;95.50;;;;;;5049325;28;20039;-62
2021/09/07 06:38:32;;;;;;;15.30;10.50;;;16.70;95.50;;;;;;5053890;28;20439;-62
2021/09/07 06:40:57;;;;;;;16.80;11.65;;;16.80;95.50;;;;;;5053507;28;20095;-62
2021/09/07 06:43:22;;;;;;;15.02;11.52;;;16.90;95.50;;;;;;5035233;28;20025;-63
2021/09/07 06:46:10;;;;;;;17.17;12.52;;;17.00;95.50;;;;;;5053431;28;20036;-62
2021/09/07 06:48:35;;;;;;;18.10;13.45;;;17.10;95.60;;;;;;5035371;28;20025;-63
2021/09/07 06:51:01;;;;;;;17.98;13.30;;;17.10;95.50;;;;;;5051207;28;20028;-63
2021/09/07 06:53:26;;;;;;;17.88;13.82;;;17.20;95.50;;;;;;5051098;28;20033;-63
2021/09/07 06:55:52;;;;;;;18.42;13.57;;;17.30;95.60;;;;;;5061930;28;20029;-62
2021/09/07 06:58:17;;;;;;;18.60;13.55;;;17.30;95.60;;;;;;5049150;28;20041;-63
2021/09/07 07:00:43;;;;;;;18.58;14.07;;;17.40;95.60;;;;;;5052056;28;20036;-63
2021/09/07 07:03:08;;;;;;;20.75;14.20;;;17.50;95.60;;;;;;5053087;28;20041;-63
2021/09/07 07:05:34;;;;;;;19.50;14.88;;;17.50;95.60;;;;;;5040018;28;20478;-63
2021/09/07 07:08:01;;;;;;;20.80;14.38;;;17.60;95.60;;;;;;5049291;28;20025;-63
2021/09/07 07:10:26;;;;;;;18.45;14.38;;;17.70;95.60;;;;;;5034949;28;20040;-63
2021/09/07 07:12:52;;;;;;;19.20;14.13;;;17.80;95.60;;;;;;5034930;28;20071;-63
2021/09/07 07:15:18;;;;;;;19.52;13.77;;;17.90;95.60;;;;;;5052875;28;20381;-63
2021/09/07 07:17:44;;;;;;;18.30;14.18;;;17.90;95.60;;;;;;5052741;28;20086;-63
2021/09/07 07:20:10;;;;;;;16.10;13.20;;;18.00;95.60;;;;;;5052823;28;20028;-63
2021/09/07 07:22:35;;;;;;;18.67;14.40;;;18.10;95.60;;;;;;5052599;28;20473;-63
2021/09/07 07:25:01;;;;;;;19.25;15.00;;;18.20;95.60;;;;;;5052432;28;20047;-63
2021/09/07 07:27:26;;;;;;;18.88;14.90;;;18.30;95.60;;;;;;5052756;28;20021;-63
2021/09/07 07:29:52;;;;;;;18.55;13.43;;;18.40;95.60;;;;;;5051887;28;20044;-63
2021/09/07 07:32:17;;;;;;;19.48;13.65;;;18.50;95.60;;;;;;5052213;28;20473;-63
2021/09/07 07:34:43;;;;;;;17.73;13.85;;;18.50;95.50;;;;;;5052370;28;20028;-63
2021/09/07 07:37:22;;;;;;;20.65;14.48;;;18.60;95.50;;;;;;5053021;28;20028;-63
2021/09/07 07:39:47;;;;;;;18.50;13.90;;;18.70;95.50;;;;;;5052606;28;20401;-63
2021/09/07 07:42:16;;;;;;;17.75;14.20;;;18.80;95.40;;;;;;5051979;28;20036;-63
2021/09/07 07:44:41;;;;;;;20.05;14.48;;;18.90;95.40;;;;;;5052270;28;20037;-63
2021/09/07 07:47:07;;;;;;;21.08;15.93;;;19.00;95.30;;;;;;5034611;28;20017;-63
2021/09/07 07:49:32;;;;;;;19.80;14.80;;;19.10;95.30;;;;;;5052427;28;20495;-63
2021/09/07 07:51:58;;;;;;;21.27;15.60;;;19.20;95.20;;;;;;5063159;28;20036;-63
2021/09/07 07:54:24;;;;;;;18.40;14.77;;;19.30;95.10;;;;;;5052288;28;20029;-64
2021/09/07 07:56:50;;;;;;;20.45;15.07;;;19.40;95.00;;;;;;5056418;28;20035;-64
2021/09/07 07:59:15;;;;;;;19.73;14.73;;;19.50;94.90;;;;;;5071359;28;20028;-64
2021/09/07 08:01:41;;;;;;;22.33;16.58;;;19.60;94.80;;;;;;5071089;28;20025;-64
2021/09/07 08:04:06;;;;;;;19.77;15.02;;;19.60;94.70;;;;;;5066081;28;20499;-64
2021/09/07 08:06:34;;;;;;;20.30;14.93;;;19.70;94.60;;;;;;5053359;28;20021;-64
2021/09/07 08:08:59;;;;;;;24.08;16.60;;;19.80;94.60;;;;;;5053655;28;20423;-64
2021/09/07 08:11:25;;;;;;;26.92;19.92;;;19.90;94.40;;;;;;5066360;28;20020;-64
2021/09/07 08:13:59;;;;;;;32.55;22.70;;;20.00;94.20;;;;;;5071669;28;20099;-64
2021/09/07 08:16:24;;;;;;;32.50;23.27;;;20.10;93.80;;;;;;5070985;28;20056;-64
2021/09/07 08:19:17;;;;;;;;;;;;;;;;;;;;;
2021/09/07 08:21:42;;;;;;;27.58;20.52;;;20.10;93.20;;;;;;5071121;28;20027;-64
2021/09/07 08:24:34;;;;;;;23.10;17.83;;;20.20;93.00;;;;;;5061988;28;20111;-64
2021/09/07 08:26:59;;;;;;;26.08;18.25;;;20.40;92.60;;;;;;5063757;28;20024;-64
2021/09/07 08:29:25;;;;;;;22.80;16.02;;;20.60;92.40;;;;;;5071362;28;20047;-64
2021/09/07 08:32:03;;;;;;;21.52;16.05;;;20.70;92.10;;;;;;5065845;28;20086;-64
2021/09/07 08:34:29;;;;;;;27.75;19.13;;;20.90;91.60;;;;;;5071409;28;20050;-64
2021/09/07 08:36:54;;;;;;;21.25;15.48;;;21.00;91.10;;;;;;5069597;28;20021;-64
2021/09/07 08:39:24;;;;;;;19.73;14.73;;;21.20;91.00;;;;;;5047979;28;20021;-64
2021/09/07 08:41:50;;;;;;;25.00;18.63;;;21.30;90.40;;;;;;5071438;28;20044;-64
2021/09/07 08:44:17;;;;;;;27.85;19.92;;;21.40;89.10;;;;;;5071209;28;20025;-64
2021/09/07 08:46:43;;;;;;;22.83;18.45;;;21.50;87.60;;;;;;5060679;28;20025;-63
2021/09/07 08:49:10;;;;;;;25.90;18.92;;;21.60;87.00;;;;;;5051834;28;20079;-64
2021/09/07 08:51:36;;;;;;;24.95;18.30;;;21.70;85.80;;;;;;5063658;28;20032;-64
2021/09/07 08:54:07;;;;;;;22.70;15.45;;;21.80;85.30;;;;;;5066975;28;20013;-64
2021/09/07 08:56:32;;;;;;;18.83;13.57;;;22.00;85.00;;;;;;5069644;28;20023;-64
2021/09/07 08:58:58;;;;;;;14.52;11.25;;;22.10;84.80;;;;;;5057072;28;20025;-64
2021/09/07 09:01:25;;;;;;;15.93;10.73;;;22.40;84.60;;;;;;5049165;28;20025;-64
2021/09/07 09:03:51;;;;;;;13.45;10.73;;;22.60;84.10;;;;;;5055004;28;20476;-64
2021/09/07 09:06:26;;;;;;;14.02;9.82;;;22.80;83.70;;;;;;5069030;28;20032;-64
2021/09/07 09:09:05;;;;;;;12.07;8.85;;;22.90;82.80;;;;;;5058677;28;20028;-64
2021/09/07 09:11:52;;;;;;;9.90;8.20;;;23.10;82.20;;;;;;5055141;28;20532;-64
2021/09/07 09:14:39;;;;;;;11.50;8.88;;;23.20;81.70;;;;;;5037112;28;20029;-65
2021/09/07 09:17:22;;;;;;;9.98;8.00;;;23.40;81.00;;;;;;5037065;28;20029;-64
2021/09/07 09:19:54;;;;;;;11.55;8.98;;;23.50;80.00;;;;;;5053327;28;20552;-64
2021/09/07 09:22:20;;;;;;;13.65;11.00;;;23.60;78.60;;;;;;5054780;28;20040;-64
2021/09/07 09:24:54;;;;;;;13.70;11.18;;;23.40;72.40;;;;;;5066190;28;20028;-64
2021/09/07 09:27:25;;;;;;;16.25;12.18;;;23.40;70.20;;;;;;5050874;28;20973;-63
2021/09/07 09:29:54;;;;;;;12.43;10.20;;;23.40;68.10;;;;;;5074287;28;20016;-64
2021/09/07 09:32:24;;;;;;;13.68;11.27;;;23.40;67.10;;;;;;5074084;28;20009;-64
2021/09/07 09:34:50;;;;;;;10.98;9.32;;;23.50;66.70;;;;;;5068676;28;20365;-64
2021/09/07 09:37:16;;;;;;;12.32;9.10;;;23.60;67.10;;;;;;5072717;28;20027;-64
2021/09/07 09:39:49;;;;;;;9.98;8.48;;;23.90;67.70;;;;;;5070852;28;20105;-64
2021/09/07 09:42:28;;;;;;;13.95;10.18;;;24.10;67.80;;;;;;5072820;28;20115;-64
2021/09/07 09:45:01;;;;;;;14.82;11.65;;;24.30;66.30;;;;;;5074042;28;20063;-64
2021/09/07 09:47:35;;;;;;;10.73;9.45;;;24.30;64.60;;;;;;5073832;28;20073;-64
2021/09/07 09:50:03;;;;;;;15.15;11.48;;;24.40;66.20;;;;;;5067400;28;20017;-64
2021/09/07 09:52:30;;;;;;;13.75;9.10;;;24.50;64.00;;;;;;5049844;28;20111;-64
2021/09/07 09:54:59;;;;;;;11.23;8.68;;;24.50;65.00;;;;;;5068313;28;20436;-64
2021/09/07 09:57:25;;;;;;;9.02;7.63;;;24.70;65.50;;;;;;5073481;28;20072;-64
2021/09/07 10:00:00;;;;;;;8.98;7.43;;;24.80;65.90;;;;;;5073372;28;20476;-64
2021/09/07 10:02:28;;;;;;;13.88;11.07;;;25.00;66.00;;;;;;5038482;28;20400;-64
2021/09/07 10:04:54;;;;;;;11.93;10.55;;;25.00;64.00;;;;;;5063831;28;20111;-64
2021/09/07 10:07:20;;;;;;;13.32;10.38;;;25.00;63.60;;;;;;5071304;28;20423;-64
2021/09/07 10:09:48;;;;;;;13.88;10.70;;;25.10;63.90;;;;;;5059201;28;20036;-64
2021/09/07 10:12:18;;;;;;;13.27;9.45;;;25.10;63.00;;;;;;5053967;28;20036;-64
2021/09/07 10:14:55;;;;;;;12.02;8.80;;;25.20;63.60;;;;;;5036074;28;20017;-64
2021/09/07 10:17:36;;;;;;;10.60;7.78;;;25.40;63.60;;;;;;5056536;28;20028;-64
2021/09/07 10:25:58;;;;;;;10.40;7.63;;;25.70;60.60;;;;;;5063690;28;20431;-64
2021/09/07 10:28:42;;;;;;;11.40;8.57;;;26.00;61.20;;;;;;5072335;28;20376;-66
2021/09/07 10:31:09;;;;;;;10.90;9.57;;;26.10;59.80;;;;;;5073299;28;20016;-64
2021/09/07 10:33:51;;;;;;;13.82;10.00;;;26.10;59.90;;;;;;5062083;28;20013;-64
2021/09/07 10:36:23;;;;;;;10.82;8.93;;;26.20;59.00;;;;;;5054875;28;20032;-64
2021/09/07 10:38:52;;;;;;;10.88;8.13;;;26.40;59.80;;;;;;5070914;28;20024;-64
2021/09/07 10:41:30;;;;;;;7.05;6.35;;;26.70;60.00;;;;;;5065933;28;20408;-64
2021/09/07 10:44:00;;;;;;;8.60;7.65;;;27.10;59.90;;;;;;5053454;28;20021;-64
2021/09/07 10:46:49;;;;;;;10.77;8.57;;;27.30;59.50;;;;;;5053279;28;20120;-64
2021/09/07 10:49:15;;;;;;;;;;;27.70;58.40;;;;;;5053502;28;20021;-64
2021/09/07 10:52:15;;;;;;;7.47;6.75;;;27.90;58.70;;;;;;5051993;28;19958;-64
2021/09/07 10:54:46;;;;;;;8.50;7.57;;;28.50;59.20;;;;;;5045988;28;20044;-65
2021/09/07 10:57:46;;;;;;;6.80;6.10;;;30.30;57.10;;;;;;5053049;28;20028;-65
2021/09/07 11:00:23;;;;;;;7.15;6.45;;;32.90;54.10;;;;;;5056600;28;20024;-65
2021/09/07 11:02:48;;;;;;;7.40;6.07;;;35.20;50.20;;;;;;5067739;28;20032;-65
2021/09/07 11:05:23;;;;;;;7.63;6.68;;;36.50;47.80;;;;;;5048933;28;20029;-65
2021/09/07 11:08:02;;;;;;;6.95;6.25;;;36.70;46.20;;;;;;5056566;28;20654;-65
2021/09/07 11:10:29;;;;;;;7.85;6.10;;;36.70;45.80;;;;;;5039517;28;20052;-65
2021/09/07 11:13:24;;;;;;;7.75;6.95;;;36.80;45.70;;;;;;5061443;28;20491;-64
2021/09/07 11:15:51;;;;;;;7.25;6.55;;;36.50;45.40;;;;;;5043591;28;20037;-65
2021/09/07 11:18:26;;;;;;;8.85;8.05;;;37.00;45.70;;;;;;5052112;28;20029;-65
2021/09/07 11:20:54;;;;;;;9.15;8.10;;;38.20;43.50;;;;;;5052425;28;20388;-65
2021/09/07 11:23:32;;;;;;;8.52;7.18;;;37.80;41.10;;;;;;5052649;28;20059;-65
2021/09/07 11:26:03;;;;;;;8.10;7.33;;;38.90;42.10;;;;;;5034778;28;20499;-65
2021/09/07 11:28:31;;;;;;;10.23;9.32;;;40.00;40.20;;;;;;5052641;28;20464;-65
2021/09/07 11:30:57;;;;;;;11.55;10.35;;;39.40;38.20;;;;;;5052510;28;20021;-65
2021/09/07 11:33:30;;;;;;;10.38;9.15;;;38.90;37.40;;;;;;5034606;28;20028;-65
2021/09/07 11:36:05;;;;;;;10.40;9.40;;;39.20;38.30;;;;;;5052211;28;20429;-65
2021/09/07 11:38:33;;;;;;;10.38;9.48;;;38.90;37.70;;;;;;5052869;28;20025;-65
2021/09/07 11:41:04;;;;;;;10.82;9.73;;;39.70;38.10;;;;;;5033881;28;20497;-65
2021/09/07 11:43:40;;;;;;;8.90;8.18;;;41.30;37.40;;;;;;5052051;28;20021;-65
2021/09/07 11:46:20;;;;;;;8.95;8.15;;;41.70;35.60;;;;;;5071732;28;20028;-65
2021/09/07 11:48:55;;;;;;;8.10;7.40;;;41.50;35.20;;;;;;5070249;28;20519;-65
2021/09/07 11:51:30;;;;;;;9.23;8.43;;;42.70;36.00;;;;;;5071640;28;20028;-65
2021/09/07 11:53:58;;;;;;;7.80;7.15;;;44.40;34.70;;;;;;5069154;28;20457;-65
2021/09/07 11:56:26;;;;;;;7.85;7.07;;;44.70;34.10;;;;;;5070637;28;20397;-65
2021/09/07 11:58:52;;;;;;;7.28;6.68;;;45.50;34.20;;;;;;5066487;28;20025;-65
2021/09/07 12:01:27;;;;;;;7.93;7.32;;;46.60;33.90;;;;;;5071898;28;20086;-65
2021/09/07 12:04:04;;;;;;;11.02;10.13;;;46.60;32.50;;;;;;5033943;28;20029;-65
2021/09/07 12:06:40;;;;;;;8.68;7.85;;;46.20;31.90;;;;;;5052091;28;20028;-65
2021/09/07 12:09:16;;;;;;;8.90;8.20;;;46.40;32.20;;;;;;5034356;28;20013;-65
2021/09/07 12:11:53;;;;;;;9.15;8.38;;;47.20;32.50;;;;;;5052035;28;20092;-65
2021/09/07 12:14:24;;;;;;;8.65;7.95;;;48.10;32.00;;;;;;5049869;28;20115;-65
2021/09/07 12:17:18;;;;;;;;;;;;;;;;;;;;;
2021/09/07 12:19:47;;;;;;;9.20;8.40;;;48.80;30.40;;;;;;5026099;28;20029;-65
2021/09/07 12:22:26;;;;;;;7.95;7.25;;;48.50;30.90;;;;;;5052017;28;20029;-65
2021/09/07 12:25:06;;;;;;;7.18;6.50;;;49.30;30.90;;;;;;5051962;28;20029;-65
2021/09/07 12:27:41;;;;;;;7.35;6.75;;;50.20;30.80;;;;;;5049931;28;20517;-65
2021/09/07 12:30:21;;;;;;;9.15;8.45;;;50.70;30.00;;;;;;5068845;28;20397;-65
2021/09/07 12:33:02;;;;;;;8.15;7.50;;;49.90;29.70;;;;;;5055843;28;20017;-65
2021/09/07 12:35:30;;;;;;;8.60;7.90;;;50.00;30.10;;;;;;5060885;28;20025;-66
2021/09/07 12:37:57;;;;;;;8.27;7.57;;;49.60;30.00;;;;;;5066934;28;20024;-65
2021/09/07 12:40:33;;;;;;;9.23;8.43;;;49.80;30.30;;;;;;5057045;28;20033;-65
2021/09/07 12:43:30;;;;;;;8.95;8.25;;;49.90;30.10;;;;;;5052788;28;20043;-65
2021/09/07 12:45:59;;;;;;;8.75;8.05;;;50.10;30.40;;;;;;5064330;28;20049;-65
2021/09/07 12:48:25;;;;;;;8.32;7.57;;;49.90;30.00;;;;;;5075183;28;20146;-65
2021/09/07 12:50:50;;;;;;;8.38;7.68;;;48.90;30.20;;;;;;5075264;28;20060;-65
2021/09/07 12:53:22;;;;;;;8.20;7.60;;;48.40;30.70;;;;;;5045976;28;20070;-65